sensor_id;sensor_type;location;lat;lon;timestamp;P1;durP1;ratioP1;P2;durP2;ratioP2
14316;SDS011;7242;50.858;6.586;2024-03-17T00:01:25;15.47;;;11.37;;
14316;SDS011;7242;50.858;6.586;2024-03-17T00:04:26;14.40;;;9.97;;
14316;SDS011;7242;50.858;6.586;2024-03-17T00:07:27;14.17;;;10.10;;
14316;SDS011;7242;50.858;6.586;2024-03-17T00:10:28;12.57;;;10.67;;
14316;SDS011;7242;50.858;6.586;2024-03-17T00:13:30;10.40;;;8.67;;
14316;SDS011;7242;50.858;6.586;2024-03-17T00:16:31;9.00;;;8.07;;
14316;SDS011;7242;50.858;6.586;2024-03-17T00:19:33;8.60;;;7.70;;
14316;SDS011;7242;50.858;6.586;2024-03-17T00:22:33;10.07;;;8.67;;
14316;SDS011;7242;50.858;6.586;2024-03-17T00:25:39;8.97;;;8.07;;
14316;SDS011;7242;50.858;6.586;2024-03-17T00:28:40;9.40;;;8.37;;
14316;SDS011;7242;50.858;6.586;2024-03-17T00:31:41;8.80;;;7.90;;
14316;SDS011;7242;50.858;6.586;2024-03-17T00:34:42;9.40;;;7.70;;
14316;SDS011;7242;50.858;6.586;2024-03-17T00:37:44;10.00;;;7.90;;
14316;SDS011;7242;50.858;6.586;2024-03-17T00:40:45;9.97;;;8.43;;
14316;SDS011;7242;50.858;6.586;2024-03-17T00:43:47;8.00;;;7.20;;
14316;SDS011;7242;50.858;6.586;2024-03-17T00:46:48;10.07;;;7.90;;
14316;SDS011;7242;50.858;6.586;2024-03-17T00:49:49;8.63;;;7.83;;
14316;SDS011;7242;50.858;6.586;2024-03-17T00:52:50;8.60;;;7.77;;
14316;SDS011;7242;50.858;6.586;2024-03-17T00:55:55;8.23;;;7.33;;
14316;SDS011;7242;50.858;6.586;2024-03-17T00:59:00;8.03;;;7.00;;
14316;SDS011;7242;50.858;6.586;2024-03-17T01:02:01;7.97;;;6.90;;
14316;SDS011;7242;50.858;6.586;2024-03-17T01:05:02;7.87;;;7.07;;
14316;SDS011;7242;50.858;6.586;2024-03-17T01:08:05;7.10;;;6.40;;
14316;SDS011;7242;50.858;6.586;2024-03-17T01:11:06;8.03;;;7.23;;
14316;SDS011;7242;50.858;6.586;2024-03-17T01:14:08;7.93;;;6.83;;
14316;SDS011;7242;50.858;6.586;2024-03-17T01:17:10;8.23;;;7.27;;
14316;SDS011;7242;50.858;6.586;2024-03-17T01:20:11;7.27;;;6.67;;
14316;SDS011;7242;50.858;6.586;2024-03-17T01:23:12;7.30;;;6.60;;
14316;SDS011;7242;50.858;6.586;2024-03-17T01:26:14;7.30;;;6.60;;
14316;SDS011;7242;50.858;6.586;2024-03-17T01:29:15;7.60;;;6.90;;
14316;SDS011;7242;50.858;6.586;2024-03-17T01:32:16;7.50;;;6.80;;
14316;SDS011;7242;50.858;6.586;2024-03-17T01:35:19;7.60;;;6.90;;
14316;SDS011;7242;50.858;6.586;2024-03-17T01:38:20;7.40;;;6.70;;
14316;SDS011;7242;50.858;6.586;2024-03-17T01:41:21;7.17;;;6.57;;
14316;SDS011;7242;50.858;6.586;2024-03-17T01:44:24;7.20;;;6.50;;
14316;SDS011;7242;50.858;6.586;2024-03-17T01:47:26;7.20;;;6.50;;
14316;SDS011;7242;50.858;6.586;2024-03-17T01:50:37;6.83;;;6.03;;
14316;SDS011;7242;50.858;6.586;2024-03-17T01:53:38;7.10;;;5.90;;
14316;SDS011;7242;50.858;6.586;2024-03-17T01:56:40;6.67;;;6.03;;
14316;SDS011;7242;50.858;6.586;2024-03-17T01:59:41;6.27;;;5.67;;
14316;SDS011;7242;50.858;6.586;2024-03-17T02:02:43;6.80;;;5.83;;
14316;SDS011;7242;50.858;6.586;2024-03-17T02:05:45;6.57;;;5.87;;
14316;SDS011;7242;50.858;6.586;2024-03-17T02:08:49;6.47;;;5.80;;
14316;SDS011;7242;50.858;6.586;2024-03-17T02:11:52;6.07;;;5.40;;
14316;SDS011;7242;50.858;6.586;2024-03-17T02:14:52;5.60;;;5.10;;
14316;SDS011;7242;50.858;6.586;2024-03-17T02:17:54;6.47;;;5.63;;
14316;SDS011;7242;50.858;6.586;2024-03-17T02:20:55;6.20;;;5.20;;
14316;SDS011;7242;50.858;6.586;2024-03-17T02:23:58;7.20;;;5.40;;
14316;SDS011;7242;50.858;6.586;2024-03-17T02:27:00;5.90;;;5.40;;
14316;SDS011;7242;50.858;6.586;2024-03-17T02:30:02;7.50;;;5.13;;
14316;SDS011;7242;50.858;6.586;2024-03-17T02:33:05;5.47;;;4.97;;
14316;SDS011;7242;50.858;6.586;2024-03-17T02:36:05;6.00;;;5.40;;
14316;SDS011;7242;50.858;6.586;2024-03-17T02:39:12;6.03;;;5.43;;
14316;SDS011;7242;50.858;6.586;2024-03-17T02:42:34;5.50;;;5.00;;
14316;SDS011;7242;50.858;6.586;2024-03-17T02:45:35;7.13;;;5.70;;
14316;SDS011;7242;50.858;6.586;2024-03-17T02:48:36;6.13;;;5.33;;
14316;SDS011;7242;50.858;6.586;2024-03-17T02:51:44;6.43;;;5.10;;
14316;SDS011;7242;50.858;6.586;2024-03-17T02:54:45;5.77;;;5.07;;
14316;SDS011;7242;50.858;6.586;2024-03-17T02:57:46;5.57;;;5.07;;
14316;SDS011;7242;50.858;6.586;2024-03-17T03:00:47;6.50;;;5.50;;
14316;SDS011;7242;50.858;6.586;2024-03-17T03:03:48;5.80;;;5.20;;
14316;SDS011;7242;50.858;6.586;2024-03-17T03:06:49;5.90;;;4.90;;
14316;SDS011;7242;50.858;6.586;2024-03-17T03:09:51;5.77;;;4.50;;
14316;SDS011;7242;50.858;6.586;2024-03-17T03:12:52;5.13;;;4.63;;
14316;SDS011;7242;50.858;6.586;2024-03-17T03:15:53;5.43;;;4.93;;
14316;SDS011;7242;50.858;6.586;2024-03-17T03:18:54;5.40;;;4.90;;
14316;SDS011;7242;50.858;6.586;2024-03-17T03:21:55;5.40;;;4.90;;
14316;SDS011;7242;50.858;6.586;2024-03-17T03:24:56;4.80;;;4.40;;
14316;SDS011;7242;50.858;6.586;2024-03-17T03:27:58;5.30;;;4.80;;
14316;SDS011;7242;50.858;6.586;2024-03-17T03:30:59;6.60;;;5.03;;
14316;SDS011;7242;50.858;6.586;2024-03-17T03:34:00;5.87;;;5.27;;
14316;SDS011;7242;50.858;6.586;2024-03-17T03:37:01;5.73;;;5.23;;
14316;SDS011;7242;50.858;6.586;2024-03-17T03:40:02;6.00;;;5.03;;
14316;SDS011;7242;50.858;6.586;2024-03-17T03:43:16;5.37;;;4.87;;
14316;SDS011;7242;50.858;6.586;2024-03-17T03:46:18;6.47;;;5.03;;
14316;SDS011;7242;50.858;6.586;2024-03-17T03:49:19;5.80;;;4.60;;
14316;SDS011;7242;50.858;6.586;2024-03-17T03:52:20;5.83;;;4.80;;
14316;SDS011;7242;50.858;6.586;2024-03-17T03:55:21;5.40;;;4.90;;
14316;SDS011;7242;50.858;6.586;2024-03-17T03:58:24;6.33;;;4.83;;
14316;SDS011;7242;50.858;6.586;2024-03-17T04:01:25;5.10;;;4.60;;
14316;SDS011;7242;50.858;6.586;2024-03-17T04:04:26;5.37;;;4.87;;
14316;SDS011;7242;50.858;6.586;2024-03-17T04:07:27;5.67;;;4.60;;
14316;SDS011;7242;50.858;6.586;2024-03-17T04:10:28;4.30;;;3.90;;
14316;SDS011;7242;50.858;6.586;2024-03-17T04:13:30;5.90;;;4.50;;
14316;SDS011;7242;50.858;6.586;2024-03-17T04:16:31;4.90;;;4.40;;
14316;SDS011;7242;50.858;6.586;2024-03-17T04:19:32;5.83;;;4.80;;
14316;SDS011;7242;50.858;6.586;2024-03-17T04:22:34;5.77;;;4.70;;
14316;SDS011;7242;50.858;6.586;2024-03-17T04:25:35;6.07;;;4.97;;
14316;SDS011;7242;50.858;6.586;2024-03-17T04:28:36;5.57;;;4.90;;
14316;SDS011;7242;50.858;6.586;2024-03-17T04:31:37;6.50;;;5.00;;
14316;SDS011;7242;50.858;6.586;2024-03-17T04:34:38;6.10;;;5.37;;
14316;SDS011;7242;50.858;6.586;2024-03-17T04:37:40;5.90;;;4.93;;
14316;SDS011;7242;50.858;6.586;2024-03-17T04:40:41;6.30;;;5.20;;
14316;SDS011;7242;50.858;6.586;2024-03-17T04:43:42;5.87;;;4.73;;
14316;SDS011;7242;50.858;6.586;2024-03-17T04:46:43;5.47;;;4.90;;
14316;SDS011;7242;50.858;6.586;2024-03-17T04:49:45;7.80;;;5.10;;
14316;SDS011;7242;50.858;6.586;2024-03-17T04:52:46;7.13;;;5.43;;
14316;SDS011;7242;50.858;6.586;2024-03-17T04:55:46;6.60;;;5.30;;
14316;SDS011;7242;50.858;6.586;2024-03-17T04:58:47;5.53;;;5.03;;
14316;SDS011;7242;50.858;6.586;2024-03-17T05:01:48;5.23;;;4.70;;
14316;SDS011;7242;50.858;6.586;2024-03-17T05:04:49;5.63;;;4.40;;
14316;SDS011;7242;50.858;6.586;2024-03-17T05:07:50;7.80;;;5.03;;
14316;SDS011;7242;50.858;6.586;2024-03-17T05:11:01;5.67;;;4.33;;
14316;SDS011;7242;50.858;6.586;2024-03-17T05:14:07;5.83;;;4.60;;
14316;SDS011;7242;50.858;6.586;2024-03-17T05:17:08;7.33;;;4.53;;
14316;SDS011;7242;50.858;6.586;2024-03-17T05:20:10;5.43;;;4.33;;
14316;SDS011;7242;50.858;6.586;2024-03-17T05:23:13;4.50;;;4.10;;
14316;SDS011;7242;50.858;6.586;2024-03-17T05:26:14;4.83;;;4.43;;
14316;SDS011;7242;50.858;6.586;2024-03-17T05:29:15;4.87;;;4.20;;
14316;SDS011;7242;50.858;6.586;2024-03-17T05:32:16;6.93;;;4.07;;
14316;SDS011;7242;50.858;6.586;2024-03-17T05:35:16;5.80;;;4.40;;
14316;SDS011;7242;50.858;6.586;2024-03-17T05:38:25;5.40;;;4.63;;
14316;SDS011;7242;50.858;6.586;2024-03-17T05:41:26;5.40;;;4.83;;
14316;SDS011;7242;50.858;6.586;2024-03-17T05:44:28;5.70;;;4.53;;
14316;SDS011;7242;50.858;6.586;2024-03-17T05:47:29;6.53;;;4.70;;
14316;SDS011;7242;50.858;6.586;2024-03-17T05:50:31;6.37;;;4.83;;
14316;SDS011;7242;50.858;6.586;2024-03-17T05:53:31;4.80;;;4.37;;
14316;SDS011;7242;50.858;6.586;2024-03-17T05:56:33;5.60;;;4.17;;
14316;SDS011;7242;50.858;6.586;2024-03-17T05:59:35;5.10;;;4.60;;
14316;SDS011;7242;50.858;6.586;2024-03-17T06:02:36;4.90;;;4.40;;
14316;SDS011;7242;50.858;6.586;2024-03-17T06:05:38;5.30;;;4.10;;
14316;SDS011;7242;50.858;6.586;2024-03-17T06:08:43;4.87;;;3.97;;
14316;SDS011;7242;50.858;6.586;2024-03-17T06:11:43;4.90;;;4.10;;
14316;SDS011;7242;50.858;6.586;2024-03-17T06:14:45;5.20;;;3.80;;
14316;SDS011;7242;50.858;6.586;2024-03-17T06:17:46;6.33;;;3.77;;
14316;SDS011;7242;50.858;6.586;2024-03-17T06:20:47;4.57;;;3.80;;
14316;SDS011;7242;50.858;6.586;2024-03-17T06:23:48;3.50;;;3.20;;
14316;SDS011;7242;50.858;6.586;2024-03-17T06:26:50;3.50;;;3.20;;
14316;SDS011;7242;50.858;6.586;2024-03-17T06:29:51;3.40;;;3.10;;
14316;SDS011;7242;50.858;6.586;2024-03-17T06:32:51;3.40;;;3.10;;
14316;SDS011;7242;50.858;6.586;2024-03-17T06:35:52;4.00;;;3.70;;
14316;SDS011;7242;50.858;6.586;2024-03-17T06:38:53;4.60;;;3.20;;
14316;SDS011;7242;50.858;6.586;2024-03-17T06:41:54;3.37;;;3.07;;
14316;SDS011;7242;50.858;6.586;2024-03-17T06:44:55;3.33;;;2.97;;
14316;SDS011;7242;50.858;6.586;2024-03-17T06:47:56;4.13;;;3.10;;
14316;SDS011;7242;50.858;6.586;2024-03-17T06:50:58;3.00;;;2.70;;
14316;SDS011;7242;50.858;6.586;2024-03-17T06:53:59;3.07;;;2.60;;
14316;SDS011;7242;50.858;6.586;2024-03-17T06:57:00;2.93;;;2.50;;
14316;SDS011;7242;50.858;6.586;2024-03-17T07:00:02;3.63;;;2.53;;
14316;SDS011;7242;50.858;6.586;2024-03-17T07:03:05;2.30;;;2.10;;
14316;SDS011;7242;50.858;6.586;2024-03-17T07:06:06;2.83;;;2.20;;
14316;SDS011;7242;50.858;6.586;2024-03-17T07:09:09;3.63;;;1.93;;
14316;SDS011;7242;50.858;6.586;2024-03-17T07:12:10;2.50;;;1.90;;
14316;SDS011;7242;50.858;6.586;2024-03-17T07:15:11;1.90;;;1.70;;
14316;SDS011;7242;50.858;6.586;2024-03-17T07:18:12;2.30;;;1.60;;
14316;SDS011;7242;50.858;6.586;2024-03-17T07:21:13;2.47;;;1.90;;
14316;SDS011;7242;50.858;6.586;2024-03-17T07:24:14;2.40;;;1.50;;
14316;SDS011;7242;50.858;6.586;2024-03-17T07:27:15;1.80;;;1.70;;
14316;SDS011;7242;50.858;6.586;2024-03-17T07:30:16;2.77;;;1.60;;
14316;SDS011;7242;50.858;6.586;2024-03-17T07:33:18;3.20;;;1.80;;
14316;SDS011;7242;50.858;6.586;2024-03-17T07:36:20;2.33;;;1.73;;
14316;SDS011;7242;50.858;6.586;2024-03-17T07:39:22;3.20;;;1.70;;
14316;SDS011;7242;50.858;6.586;2024-03-17T07:42:23;1.90;;;1.80;;
14316;SDS011;7242;50.858;6.586;2024-03-17T07:45:24;2.00;;;1.90;;
14316;SDS011;7242;50.858;6.586;2024-03-17T07:48:25;2.53;;;2.10;;
14316;SDS011;7242;50.858;6.586;2024-03-17T07:51:26;2.30;;;2.10;;
14316;SDS011;7242;50.858;6.586;2024-03-17T07:54:27;2.50;;;2.30;;
14316;SDS011;7242;50.858;6.586;2024-03-17T07:57:28;2.80;;;2.40;;
14316;SDS011;7242;50.858;6.586;2024-03-17T08:00:29;2.70;;;2.50;;
14316;SDS011;7242;50.858;6.586;2024-03-17T08:03:31;2.53;;;2.30;;
14316;SDS011;7242;50.858;6.586;2024-03-17T08:06:34;2.97;;;2.53;;
14316;SDS011;7242;50.858;6.586;2024-03-17T08:09:36;3.13;;;2.50;;
14316;SDS011;7242;50.858;6.586;2024-03-17T08:12:38;4.00;;;2.37;;
14316;SDS011;7242;50.858;6.586;2024-03-17T08:15:39;2.97;;;2.67;;
14316;SDS011;7242;50.858;6.586;2024-03-17T08:18:40;3.40;;;2.87;;
14316;SDS011;7242;50.858;6.586;2024-03-17T08:21:41;3.00;;;2.70;;
14316;SDS011;7242;50.858;6.586;2024-03-17T08:24:42;3.30;;;2.63;;
14316;SDS011;7242;50.858;6.586;2024-03-17T08:27:43;2.80;;;2.60;;
14316;SDS011;7242;50.858;6.586;2024-03-17T08:30:50;2.93;;;2.50;;
14316;SDS011;7242;50.858;6.586;2024-03-17T08:33:51;2.57;;;2.37;;
14316;SDS011;7242;50.858;6.586;2024-03-17T08:36:52;3.07;;;2.80;;
14316;SDS011;7242;50.858;6.586;2024-03-17T08:39:53;3.77;;;2.77;;
14316;SDS011;7242;50.858;6.586;2024-03-17T08:42:54;4.13;;;2.80;;
14316;SDS011;7242;50.858;6.586;2024-03-17T08:46:05;3.73;;;2.90;;
14316;SDS011;7242;50.858;6.586;2024-03-17T08:49:08;3.67;;;2.90;;
14316;SDS011;7242;50.858;6.586;2024-03-17T08:52:09;3.43;;;3.00;;
14316;SDS011;7242;50.858;6.586;2024-03-17T08:55:10;3.20;;;2.90;;
14316;SDS011;7242;50.858;6.586;2024-03-17T08:58:14;3.20;;;2.90;;
14316;SDS011;7242;50.858;6.586;2024-03-17T09:01:15;3.53;;;3.10;;
14316;SDS011;7242;50.858;6.586;2024-03-17T09:04:17;5.13;;;3.03;;
14316;SDS011;7242;50.858;6.586;2024-03-17T09:07:18;3.73;;;3.30;;
14316;SDS011;7242;50.858;6.586;2024-03-17T09:10:21;4.23;;;3.30;;
14316;SDS011;7242;50.858;6.586;2024-03-17T09:13:22;7.17;;;3.00;;
14316;SDS011;7242;50.858;6.586;2024-03-17T09:16:25;3.50;;;2.73;;
14316;SDS011;7242;50.858;6.586;2024-03-17T09:19:26;2.93;;;2.60;;
14316;SDS011;7242;50.858;6.586;2024-03-17T09:22:29;3.57;;;2.70;;
14316;SDS011;7242;50.858;6.586;2024-03-17T09:25:30;3.23;;;2.83;;
14316;SDS011;7242;50.858;6.586;2024-03-17T09:28:32;3.17;;;2.87;;
14316;SDS011;7242;50.858;6.586;2024-03-17T09:31:33;4.27;;;3.10;;
14316;SDS011;7242;50.858;6.586;2024-03-17T09:34:35;3.50;;;3.20;;
14316;SDS011;7242;50.858;6.586;2024-03-17T09:37:36;5.20;;;2.93;;
14316;SDS011;7242;50.858;6.586;2024-03-17T09:40:37;3.50;;;3.00;;
14316;SDS011;7242;50.858;6.586;2024-03-17T09:43:39;3.60;;;3.10;;
14316;SDS011;7242;50.858;6.586;2024-03-17T09:46:40;4.83;;;3.30;;
14316;SDS011;7242;50.858;6.586;2024-03-17T09:49:41;4.60;;;2.90;;
14316;SDS011;7242;50.858;6.586;2024-03-17T09:52:44;3.83;;;3.40;;
14316;SDS011;7242;50.858;6.586;2024-03-17T09:55:45;4.37;;;3.30;;
14316;SDS011;7242;50.858;6.586;2024-03-17T09:58:47;4.23;;;3.30;;
14316;SDS011;7242;50.858;6.586;2024-03-17T10:01:50;4.23;;;3.40;;
14316;SDS011;7242;50.858;6.586;2024-03-17T10:04:51;5.50;;;3.50;;
14316;SDS011;7242;50.858;6.586;2024-03-17T10:07:52;3.73;;;3.37;;
14316;SDS011;7242;50.858;6.586;2024-03-17T10:10:53;4.23;;;3.83;;
14316;SDS011;7242;50.858;6.586;2024-03-17T10:17:05;4.47;;;3.50;;
14316;SDS011;7242;50.858;6.586;2024-03-17T10:20:11;5.53;;;3.70;;
14316;SDS011;7242;50.858;6.586;2024-03-17T10:23:15;4.87;;;3.70;;
14316;SDS011;7242;50.858;6.586;2024-03-17T10:26:19;5.57;;;3.83;;
14316;SDS011;7242;50.858;6.586;2024-03-17T10:29:22;6.53;;;4.00;;
14316;SDS011;7242;50.858;6.586;2024-03-17T10:32:25;4.70;;;3.77;;
14316;SDS011;7242;50.858;6.586;2024-03-17T10:35:31;4.63;;;3.50;;
14316;SDS011;7242;50.858;6.586;2024-03-17T10:38:34;4.70;;;4.00;;
14316;SDS011;7242;50.858;6.586;2024-03-17T10:41:35;4.10;;;3.63;;
14316;SDS011;7242;50.858;6.586;2024-03-17T10:44:38;5.30;;;4.20;;
14316;SDS011;7242;50.858;6.586;2024-03-17T10:47:41;4.73;;;3.90;;
14316;SDS011;7242;50.858;6.586;2024-03-17T10:50:48;4.33;;;3.93;;
14316;SDS011;7242;50.858;6.586;2024-03-17T10:53:50;5.27;;;4.07;;
14316;SDS011;7242;50.858;6.586;2024-03-17T10:56:55;4.67;;;3.83;;
14316;SDS011;7242;50.858;6.586;2024-03-17T10:59:58;5.43;;;4.10;;
14316;SDS011;7242;50.858;6.586;2024-03-17T11:03:00;4.57;;;3.50;;
14316;SDS011;7242;50.858;6.586;2024-03-17T11:06:02;5.83;;;4.10;;
14316;SDS011;7242;50.858;6.586;2024-03-17T11:09:06;4.87;;;3.80;;
14316;SDS011;7242;50.858;6.586;2024-03-17T11:15:37;6.27;;;4.33;;
14316;SDS011;7242;50.858;6.586;2024-03-17T11:18:41;4.77;;;4.07;;
14316;SDS011;7242;50.858;6.586;2024-03-17T11:21:42;5.00;;;4.40;;
14316;SDS011;7242;50.858;6.586;2024-03-17T11:24:44;5.50;;;3.83;;
14316;SDS011;7242;50.858;6.586;2024-03-17T11:27:44;5.43;;;4.20;;
14316;SDS011;7242;50.858;6.586;2024-03-17T11:30:49;4.33;;;3.90;;
14316;SDS011;7242;50.858;6.586;2024-03-17T11:37:42;4.67;;;3.80;;
14316;SDS011;7242;50.858;6.586;2024-03-17T11:40:43;4.63;;;4.10;;
14316;SDS011;7242;50.858;6.586;2024-03-17T11:43:44;5.13;;;4.27;;
14316;SDS011;7242;50.858;6.586;2024-03-17T11:49:47;4.93;;;3.90;;
14316;SDS011;7242;50.858;6.586;2024-03-17T11:52:57;6.43;;;4.00;;
14316;SDS011;7242;50.858;6.586;2024-03-17T11:55:58;7.83;;;4.77;;
14316;SDS011;7242;50.858;6.586;2024-03-17T11:59:04;5.70;;;4.23;;
14316;SDS011;7242;50.858;6.586;2024-03-17T12:02:19;8.27;;;4.80;;
14316;SDS011;7242;50.858;6.586;2024-03-17T12:05:21;5.97;;;4.43;;
14316;SDS011;7242;50.858;6.586;2024-03-17T12:08:22;9.07;;;5.03;;
14316;SDS011;7242;50.858;6.586;2024-03-17T12:11:23;5.83;;;4.83;;
14316;SDS011;7242;50.858;6.586;2024-03-17T12:14:26;5.77;;;4.23;;
14316;SDS011;7242;50.858;6.586;2024-03-17T12:17:27;6.43;;;4.80;;
14316;SDS011;7242;50.858;6.586;2024-03-17T12:20:28;7.43;;;4.97;;
14316;SDS011;7242;50.858;6.586;2024-03-17T12:23:30;5.43;;;4.60;;
14316;SDS011;7242;50.858;6.586;2024-03-17T12:26:31;5.77;;;4.73;;
14316;SDS011;7242;50.858;6.586;2024-03-17T12:29:33;6.20;;;4.90;;
14316;SDS011;7242;50.858;6.586;2024-03-17T12:32:36;5.90;;;5.10;;
14316;SDS011;7242;50.858;6.586;2024-03-17T12:35:38;6.73;;;4.80;;
14316;SDS011;7242;50.858;6.586;2024-03-17T12:38:40;5.60;;;4.93;;
14316;SDS011;7242;50.858;6.586;2024-03-17T12:41:41;6.30;;;5.03;;
14316;SDS011;7242;50.858;6.586;2024-03-17T12:44:49;4.80;;;4.30;;
14316;SDS011;7242;50.858;6.586;2024-03-17T12:47:51;4.97;;;4.20;;
14316;SDS011;7242;50.858;6.586;2024-03-17T12:50:52;4.80;;;4.30;;
14316;SDS011;7242;50.858;6.586;2024-03-17T12:54:11;7.13;;;4.53;;
14316;SDS011;7242;50.858;6.586;2024-03-17T12:57:12;6.43;;;4.30;;
14316;SDS011;7242;50.858;6.586;2024-03-17T13:00:33;7.00;;;4.50;;
14316;SDS011;7242;50.858;6.586;2024-03-17T13:03:35;6.20;;;4.40;;
14316;SDS011;7242;50.858;6.586;2024-03-17T13:06:37;5.93;;;4.67;;
14316;SDS011;7242;50.858;6.586;2024-03-17T13:09:38;6.40;;;4.40;;
14316;SDS011;7242;50.858;6.586;2024-03-17T13:12:40;7.97;;;4.53;;
14316;SDS011;7242;50.858;6.586;2024-03-17T13:15:42;4.63;;;4.10;;
14316;SDS011;7242;50.858;6.586;2024-03-17T13:18:43;5.80;;;4.87;;
14316;SDS011;7242;50.858;6.586;2024-03-17T13:21:44;4.60;;;4.20;;
14316;SDS011;7242;50.858;6.586;2024-03-17T13:24:46;6.77;;;4.60;;
14316;SDS011;7242;50.858;6.586;2024-03-17T13:27:47;6.50;;;4.40;;
14316;SDS011;7242;50.858;6.586;2024-03-17T13:30:49;5.80;;;4.60;;
14316;SDS011;7242;50.858;6.586;2024-03-17T13:33:50;6.93;;;4.43;;
14316;SDS011;7242;50.858;6.586;2024-03-17T13:36:54;5.57;;;4.20;;
14316;SDS011;7242;50.858;6.586;2024-03-17T13:39:54;5.63;;;3.60;;
14316;SDS011;7242;50.858;6.586;2024-03-17T13:42:56;5.47;;;3.53;;
14316;SDS011;7242;50.858;6.586;2024-03-17T13:45:57;4.97;;;3.93;;
14316;SDS011;7242;50.858;6.586;2024-03-17T13:48:58;4.70;;;3.80;;
14316;SDS011;7242;50.858;6.586;2024-03-17T13:52:08;4.50;;;3.60;;
14316;SDS011;7242;50.858;6.586;2024-03-17T13:58:16;5.90;;;4.20;;
14316;SDS011;7242;50.858;6.586;2024-03-17T14:01:18;5.33;;;3.90;;
14316;SDS011;7242;50.858;6.586;2024-03-17T14:04:20;5.90;;;3.50;;
14316;SDS011;7242;50.858;6.586;2024-03-17T14:07:21;7.37;;;4.10;;
14316;SDS011;7242;50.858;6.586;2024-03-17T14:10:23;4.70;;;3.40;;
14316;SDS011;7242;50.858;6.586;2024-03-17T14:13:25;4.07;;;3.60;;
14316;SDS011;7242;50.858;6.586;2024-03-17T14:16:26;4.30;;;3.60;;
14316;SDS011;7242;50.858;6.586;2024-03-17T14:19:28;5.10;;;3.60;;
14316;SDS011;7242;50.858;6.586;2024-03-17T14:22:29;5.30;;;3.60;;
14316;SDS011;7242;50.858;6.586;2024-03-17T14:25:30;5.50;;;3.70;;
14316;SDS011;7242;50.858;6.586;2024-03-17T14:28:32;5.20;;;3.77;;
14316;SDS011;7242;50.858;6.586;2024-03-17T14:31:33;4.43;;;3.50;;
14316;SDS011;7242;50.858;6.586;2024-03-17T14:34:36;6.90;;;3.73;;
14316;SDS011;7242;50.858;6.586;2024-03-17T14:37:38;4.60;;;3.63;;
14316;SDS011;7242;50.858;6.586;2024-03-17T14:40:39;4.40;;;3.30;;
14316;SDS011;7242;50.858;6.586;2024-03-17T14:43:40;3.70;;;3.30;;
14316;SDS011;7242;50.858;6.586;2024-03-17T14:46:41;4.63;;;3.70;;
14316;SDS011;7242;50.858;6.586;2024-03-17T14:49:42;4.47;;;3.20;;
14316;SDS011;7242;50.858;6.586;2024-03-17T14:52:45;4.80;;;3.43;;
14316;SDS011;7242;50.858;6.586;2024-03-17T14:55:46;6.70;;;3.60;;
14316;SDS011;7242;50.858;6.586;2024-03-17T14:58:48;4.80;;;3.30;;
14316;SDS011;7242;50.858;6.586;2024-03-17T15:01:50;4.73;;;3.60;;
14316;SDS011;7242;50.858;6.586;2024-03-17T15:04:52;7.43;;;3.83;;
14316;SDS011;7242;50.858;6.586;2024-03-17T15:07:53;4.13;;;3.50;;
14316;SDS011;7242;50.858;6.586;2024-03-17T15:10:54;4.23;;;3.53;;
14316;SDS011;7242;50.858;6.586;2024-03-17T15:13:55;5.83;;;3.40;;
14316;SDS011;7242;50.858;6.586;2024-03-17T15:16:57;5.33;;;3.70;;
14316;SDS011;7242;50.858;6.586;2024-03-17T15:19:58;4.50;;;3.03;;
14316;SDS011;7242;50.858;6.586;2024-03-17T15:22:59;5.50;;;3.20;;
14316;SDS011;7242;50.858;6.586;2024-03-17T15:29:12;6.00;;;3.50;;
14316;SDS011;7242;50.858;6.586;2024-03-17T15:32:13;4.20;;;3.50;;
14316;SDS011;7242;50.858;6.586;2024-03-17T15:35:15;4.13;;;3.13;;
14316;SDS011;7242;50.858;6.586;2024-03-17T15:38:16;4.23;;;3.10;;
14316;SDS011;7242;50.858;6.586;2024-03-17T15:41:17;4.20;;;3.30;;
14316;SDS011;7242;50.858;6.586;2024-03-17T15:44:19;5.47;;;2.70;;
14316;SDS011;7242;50.858;6.586;2024-03-17T15:47:21;2.80;;;2.10;;
14316;SDS011;7242;50.858;6.586;2024-03-17T15:50:22;7.33;;;2.90;;
14316;SDS011;7242;50.858;6.586;2024-03-17T15:53:23;5.00;;;2.17;;
14316;SDS011;7242;50.858;6.586;2024-03-17T15:56:27;2.80;;;2.10;;
14316;SDS011;7242;50.858;6.586;2024-03-17T15:59:28;5.30;;;2.67;;
14316;SDS011;7242;50.858;6.586;2024-03-17T16:02:28;4.53;;;3.50;;
14316;SDS011;7242;50.858;6.586;2024-03-17T16:05:30;6.10;;;4.40;;
14316;SDS011;7242;50.858;6.586;2024-03-17T16:08:30;6.17;;;4.20;;
14316;SDS011;7242;50.858;6.586;2024-03-17T16:11:32;6.53;;;4.30;;
14316;SDS011;7242;50.858;6.586;2024-03-17T16:14:33;5.70;;;3.90;;
14316;SDS011;7242;50.858;6.586;2024-03-17T16:17:38;4.97;;;4.20;;
14316;SDS011;7242;50.858;6.586;2024-03-17T16:23:51;7.90;;;4.27;;
14316;SDS011;7242;50.858;6.586;2024-03-17T16:26:54;5.47;;;4.40;;
14316;SDS011;7242;50.858;6.586;2024-03-17T16:29:56;4.70;;;4.07;;
14316;SDS011;7242;50.858;6.586;2024-03-17T16:32:58;4.93;;;3.97;;
14316;SDS011;7242;50.858;6.586;2024-03-17T16:35:59;5.37;;;3.80;;
14316;SDS011;7242;50.858;6.586;2024-03-17T16:39:00;3.90;;;3.50;;
14316;SDS011;7242;50.858;6.586;2024-03-17T16:42:01;8.50;;;3.90;;
14316;SDS011;7242;50.858;6.586;2024-03-17T16:45:06;6.00;;;4.27;;
14316;SDS011;7242;50.858;6.586;2024-03-17T16:48:07;6.87;;;4.00;;
14316;SDS011;7242;50.858;6.586;2024-03-17T16:51:09;6.43;;;3.63;;
14316;SDS011;7242;50.858;6.586;2024-03-17T16:54:16;5.03;;;3.70;;
14316;SDS011;7242;50.858;6.586;2024-03-17T16:57:18;3.73;;;3.40;;
14316;SDS011;7242;50.858;6.586;2024-03-17T17:00:19;5.17;;;3.53;;
14316;SDS011;7242;50.858;6.586;2024-03-17T17:03:21;5.60;;;3.80;;
14316;SDS011;7242;50.858;6.586;2024-03-17T17:06:22;4.33;;;3.47;;
14316;SDS011;7242;50.858;6.586;2024-03-17T17:09:23;2.80;;;2.60;;
14316;SDS011;7242;50.858;6.586;2024-03-17T17:12:25;4.37;;;2.40;;
14316;SDS011;7242;50.858;6.586;2024-03-17T17:15:26;4.00;;;2.33;;
14316;SDS011;7242;50.858;6.586;2024-03-17T17:21:51;3.57;;;2.30;;
14316;SDS011;7242;50.858;6.586;2024-03-17T17:24:52;4.60;;;2.27;;
14316;SDS011;7242;50.858;6.586;2024-03-17T17:27:54;3.67;;;2.47;;
14316;SDS011;7242;50.858;6.586;2024-03-17T17:30:55;2.50;;;2.30;;
14316;SDS011;7242;50.858;6.586;2024-03-17T17:33:57;3.70;;;2.63;;
14316;SDS011;7242;50.858;6.586;2024-03-17T17:37:00;5.03;;;2.77;;
14316;SDS011;7242;50.858;6.586;2024-03-17T17:40:01;4.93;;;3.33;;
14316;SDS011;7242;50.858;6.586;2024-03-17T17:43:05;6.00;;;3.10;;
14316;SDS011;7242;50.858;6.586;2024-03-17T17:46:11;4.20;;;2.77;;
14316;SDS011;7242;50.858;6.586;2024-03-17T17:49:16;3.00;;;2.70;;
14316;SDS011;7242;50.858;6.586;2024-03-17T17:52:17;4.47;;;2.83;;
14316;SDS011;7242;50.858;6.586;2024-03-17T17:55:18;4.97;;;3.07;;
14316;SDS011;7242;50.858;6.586;2024-03-17T17:58:19;6.13;;;3.40;;
14316;SDS011;7242;50.858;6.586;2024-03-17T18:01:20;6.97;;;4.23;;
14316;SDS011;7242;50.858;6.586;2024-03-17T18:04:21;5.33;;;3.63;;
14316;SDS011;7242;50.858;6.586;2024-03-17T18:07:22;5.10;;;4.00;;
14316;SDS011;7242;50.858;6.586;2024-03-17T18:10:23;5.27;;;3.73;;
14316;SDS011;7242;50.858;6.586;2024-03-17T18:13:24;4.97;;;3.63;;
14316;SDS011;7242;50.858;6.586;2024-03-17T18:16:28;4.90;;;3.47;;
14316;SDS011;7242;50.858;6.586;2024-03-17T18:19:29;6.53;;;3.70;;
14316;SDS011;7242;50.858;6.586;2024-03-17T18:22:30;6.67;;;3.73;;
14316;SDS011;7242;50.858;6.586;2024-03-17T18:25:32;6.47;;;4.00;;
14316;SDS011;7242;50.858;6.586;2024-03-17T18:28:33;6.43;;;4.23;;
14316;SDS011;7242;50.858;6.586;2024-03-17T18:31:34;5.23;;;3.73;;
14316;SDS011;7242;50.858;6.586;2024-03-17T18:34:35;6.40;;;4.10;;
14316;SDS011;7242;50.858;6.586;2024-03-17T18:37:35;5.40;;;3.80;;
14316;SDS011;7242;50.858;6.586;2024-03-17T18:40:37;6.63;;;4.17;;
14316;SDS011;7242;50.858;6.586;2024-03-17T18:43:38;4.83;;;3.80;;
14316;SDS011;7242;50.858;6.586;2024-03-17T18:46:49;5.30;;;3.70;;
14316;SDS011;7242;50.858;6.586;2024-03-17T18:49:50;5.40;;;4.10;;
14316;SDS011;7242;50.858;6.586;2024-03-17T18:52:54;6.30;;;3.87;;
14316;SDS011;7242;50.858;6.586;2024-03-17T18:55:59;5.07;;;4.00;;
14316;SDS011;7242;50.858;6.586;2024-03-17T18:59:01;6.27;;;3.80;;